Time;durP1;ratioP1;P1;durP2;ratioP2;P2;SDS_P1;SDS_P2;PMS_P1;PMS_P2;Temp;Humidity;BMP_temperature;BMP_pressure;BME280_temperature;BME280_humidity;BME280_pressure;Samples;Min_cycle;Max_cycle;Signal;HPM_P1;HPM_P2
2021/11/18 00:35:37;;;;;;;15.73;7.83;;;;;;;;;;6226892;22;20211;-90
2021/11/18 00:38:46;;;;;;;15.80;7.87;;;;;;;;;;6245083;23;20162;-89
2021/11/18 00:41:51;;;;;;;15.43;7.63;;;;;;;;;;6246410;23;20297;-90
2021/11/18 00:44:57;;;;;;;15.97;7.80;;;;;;;;;;6244677;23;20206;-92
2021/11/18 00:48:03;;;;;;;16.33;7.77;;;;;;;;;;6244490;23;20169;-91
2021/11/18 00:51:12;;;;;;;16.23;7.57;;;;;;;;;;6241975;23;20170;-91
2021/11/18 00:54:18;;;;;;;16.23;7.90;;;;;;;;;;6243747;23;20182;-89
2021/11/18 00:57:23;;;;;;;16.40;7.40;;;;;;;;;;6244532;23;20323;-92
2021/11/18 01:00:29;;;;;;;16.87;8.23;;;;;;;;;;6245401;23;20655;-92
2021/11/18 01:03:36;;;;;;;15.70;7.70;;;;;;;;;;6244836;23;20170;-89
2021/11/18 01:06:43;;;;;;;16.30;7.80;;;;;;;;;;6242479;23;20241;-90
2021/11/18 01:09:49;;;;;;;12.80;7.00;;;;;;;;;;6245113;22;20170;-89
2021/11/18 01:12:55;;;;;;;17.40;8.77;;;;;;;;;;6246405;23;20308;-93
2021/11/18 01:16:03;;;;;;;16.30;7.27;;;;;;;;;;6244601;23;20210;-92
2021/11/18 01:19:09;;;;;;;18.57;8.57;;;;;;;;;;6243535;23;20662;-91
2021/11/18 01:22:19;;;;;;;17.17;8.00;;;;;;;;;;6243579;23;20646;-91
2021/11/18 01:25:24;;;;;;;14.97;7.57;;;;;;;;;;6243656;23;20178;-90
2021/11/18 01:28:30;;;;;;;16.00;7.50;;;;;;;;;;6244012;23;20209;-91
2021/11/18 01:31:35;;;;;;;15.90;7.67;;;;;;;;;;6243032;23;20170;-91
2021/11/18 01:34:41;;;;;;;15.40;7.03;;;;;;;;;;6241862;23;20197;-90
2021/11/18 01:37:48;;;;;;;14.60;7.43;;;;;;;;;;6243113;23;20162;-89
2021/11/18 01:40:58;;;;;;;14.83;7.90;;;;;;;;;;6243564;23;20182;-89
2021/11/18 01:44:17;;;;;;;18.40;8.90;;;;;;;;;;6243526;23;20166;-89
2021/11/18 01:47:23;;;;;;;15.70;8.10;;;;;;;;;;6245014;22;20166;-90
2021/11/18 01:50:29;;;;;;;17.00;8.50;;;;;;;;;;6243991;22;20259;-91
2021/11/18 01:53:38;;;;;;;15.60;7.63;;;;;;;;;;6244049;22;20222;-92
2021/11/18 01:56:49;;;;;;;16.97;8.40;;;;;;;;;;6261725;22;20268;-93
2021/11/18 01:59:55;;;;;;;17.83;9.40;;;;;;;;;;6241646;23;20171;-93
2021/11/18 02:03:20;;;;;;;16.40;8.07;;;;;;;;;;6260979;23;20253;-92
2021/11/18 02:06:54;;;;;;;16.50;7.53;;;;;;;;;;6242417;22;20162;-92
2021/11/18 02:10:01;;;;;;;15.20;7.53;;;;;;;;;;6242917;22;20147;-90
2021/11/18 02:13:11;;;;;;;14.80;8.47;;;;;;;;;;6242658;23;20167;-92
2021/11/18 02:16:16;;;;;;;20.63;9.57;;;;;;;;;;6242599;23;20187;-93
2021/11/18 02:19:21;;;;;;;18.23;9.03;;;;;;;;;;6242128;23;20178;-91
2021/11/18 02:22:29;;;;;;;17.97;9.00;;;;;;;;;;6243593;22;20235;-91
2021/11/18 02:25:35;;;;;;;15.07;8.40;;;;;;;;;;6243451;22;20171;-91
2021/11/18 02:28:41;;;;;;;19.70;8.13;;;;;;;;;;6248781;23;20224;-92
2021/11/18 02:31:48;;;;;;;17.17;8.27;;;;;;;;;;6242223;23;20218;-90
2021/11/18 02:35:01;;;;;;;20.27;8.87;;;;;;;;;;6242592;22;20190;-93
2021/11/18 02:38:08;;;;;;;21.10;9.53;;;;;;;;;;6242535;23;20177;-92
2021/11/18 02:41:15;;;;;;;18.30;8.77;;;;;;;;;;6244071;23;20198;-92
2021/11/18 02:44:22;;;;;;;19.80;9.40;;;;;;;;;;6241370;23;20617;-91
2021/11/18 02:47:28;;;;;;;21.70;10.23;;;;;;;;;;6242566;23;20657;-89
2021/11/18 02:50:34;;;;;;;24.23;10.63;;;;;;;;;;6241226;22;20171;-91
2021/11/18 02:53:41;;;;;;;20.43;9.40;;;;;;;;;;6243753;22;20147;-93
2021/11/18 02:56:47;;;;;;;19.97;9.77;;;;;;;;;;6243741;23;20250;-91
2021/11/18 02:59:53;;;;;;;21.57;9.30;;;;;;;;;;6242647;23;20622;-91
2021/11/18 03:02:58;;;;;;;21.37;10.10;;;;;;;;;;6241264;23;20238;-90
2021/11/18 03:06:06;;;;;;;23.13;10.00;;;;;;;;;;6240880;23;20170;-90
2021/11/18 03:09:13;;;;;;;22.53;10.87;;;;;;;;;;6242475;23;20173;-94
2021/11/18 03:12:17;;;;;;;23.17;10.33;;;;;;;;;;6241652;23;20234;-89
2021/11/18 03:15:23;;;;;;;21.27;10.60;;;;;;;;;;6242515;23;20340;-93
2021/11/18 03:18:30;;;;;;;27.77;11.07;;;;;;;;;;6241830;23;20239;-92
2021/11/18 03:21:35;;;;;;;23.17;11.10;;;;;;;;;;6240233;23;20231;-90
2021/11/18 03:24:43;;;;;;;24.13;11.33;;;;;;;;;;6241275;22;20150;-92
2021/11/18 03:27:49;;;;;;;25.60;12.07;;;;;;;;;;6241182;22;20606;-90
2021/11/18 03:30:59;;;;;;;26.07;11.90;;;;;;;;;;6242210;23;20206;-93
2021/11/18 03:34:09;;;;;;;23.33;10.97;;;;;;;;;;6240268;23;20190;-90
2021/11/18 03:37:17;;;;;;;23.83;11.37;;;;;;;;;;6239596;23;20324;-90
2021/11/18 03:40:25;;;;;;;22.33;10.93;;;;;;;;;;6240389;23;20167;-91
2021/11/18 03:43:31;;;;;;;21.17;10.80;;;;;;;;;;6241086;23;20183;-92
2021/11/18 03:46:39;;;;;;;20.77;10.10;;;;;;;;;;6242857;23;20574;-90
2021/11/18 03:49:48;;;;;;;23.33;10.67;;;;;;;;;;6241624;23;20183;-91
2021/11/18 03:52:54;;;;;;;22.77;10.83;;;;;;;;;;6241272;23;20186;-91
2021/11/18 03:56:01;;;;;;;26.73;10.97;;;;;;;;;;6243464;22;20173;-92
2021/11/18 03:59:07;;;;;;;25.80;11.37;;;;;;;;;;6242661;23;20169;-93
2021/11/18 04:02:13;;;;;;;23.53;10.50;;;;;;;;;;6241651;23;20313;-90
2021/11/18 04:05:19;;;;;;;19.63;10.27;;;;;;;;;;6243091;23;20173;-91
2021/11/18 04:08:25;;;;;;;22.40;10.87;;;;;;;;;;6240895;22;20212;-93
2021/11/18 04:11:36;;;;;;;23.97;11.17;;;;;;;;;;6241758;23;20170;-90
2021/11/18 04:14:45;;;;;;;24.57;11.43;;;;;;;;;;6243330;23;20625;-90
2021/11/18 04:17:51;;;;;;;24.40;10.97;;;;;;;;;;6242681;23;20170;-92
2021/11/18 04:20:57;;;;;;;23.97;11.20;;;;;;;;;;6241678;23;20233;-91
2021/11/18 04:24:04;;;;;;;24.47;11.67;;;;;;;;;;6242126;23;20167;-90
2021/11/18 04:27:13;;;;;;;24.60;11.87;;;;;;;;;;6242047;23;20225;-91
2021/11/18 04:30:20;;;;;;;23.90;11.43;;;;;;;;;;6242389;23;20166;-91
2021/11/18 04:33:44;;;;;;;28.50;11.53;;;;;;;;;;6241658;23;20293;-93
2021/11/18 04:36:49;;;;;;;24.40;11.43;;;;;;;;;;6243203;23;20569;-92
2021/11/18 04:39:54;;;;;;;27.90;11.60;;;;;;;;;;6241404;23;20237;-91
2021/11/18 04:43:05;;;;;;;24.67;11.63;;;;;;;;;;6243004;22;20455;-93
2021/11/18 04:46:12;;;;;;;28.30;12.00;;;;;;;;;;6241943;22;20210;-90
2021/11/18 04:49:18;;;;;;;24.53;11.33;;;;;;;;;;6242201;23;20494;-91
2021/11/18 04:52:23;;;;;;;24.37;11.20;;;;;;;;;;6241878;23;20198;-92
2021/11/18 04:55:30;;;;;;;24.23;11.40;;;;;;;;;;6243190;23;20170;-90
2021/11/18 04:58:37;;;;;;;25.53;12.77;;;;;;;;;;6242734;23;20154;-93
2021/11/18 05:01:53;;;;;;;27.53;12.10;;;;;;;;;;6242054;22;20575;-90
2021/11/18 05:04:59;;;;;;;29.43;12.00;;;;;;;;;;6242692;23;20182;-89
2021/11/18 05:08:05;;;;;;;23.60;11.87;;;;;;;;;;6241400;23;20171;-91
2021/11/18 05:11:10;;;;;;;25.43;11.93;;;;;;;;;;6240682;23;20178;-90
2021/11/18 05:14:17;;;;;;;30.13;12.50;;;;;;;;;;6244499;23;20171;-90
2021/11/18 05:17:23;;;;;;;25.10;12.03;;;;;;;;;;6243230;22;20232;-91
2021/11/18 05:20:28;;;;;;;24.00;11.97;;;;;;;;;;6242870;23;20205;-91
2021/11/18 05:23:34;;;;;;;29.53;13.57;;;;;;;;;;6243899;22;20176;-91
2021/11/18 05:26:41;;;;;;;26.97;13.37;;;;;;;;;;6244013;23;20171;-91
2021/11/18 05:29:49;;;;;;;30.33;13.53;;;;;;;;;;6246676;23;20162;-91
2021/11/18 05:32:55;;;;;;;28.43;13.70;;;;;;;;;;6244297;22;20166;-92
2021/11/18 05:36:05;;;;;;;35.53;14.13;;;;;;;;;;6245615;23;20190;-94
2021/11/18 05:39:11;;;;;;;36.93;15.17;;;;;;;;;;6246252;23;20182;-92
2021/11/18 05:42:26;;;;;;;33.87;13.87;;;;;;;;;;6242815;23;20195;-92
2021/11/18 05:45:36;;;;;;;32.53;13.80;;;;;;;;;;6242726;23;20190;-92
2021/11/18 05:48:50;;;;;;;29.73;12.50;;;;;;;;;;6243314;23;20212;-93
2021/11/18 05:51:55;;;;;;;31.30;13.77;;;;;;;;;;6243260;23;20246;-92
2021/11/18 05:55:04;;;;;;;28.93;13.20;;;;;;;;;;6241784;23;20162;-93
2021/11/18 05:58:10;;;;;;;32.60;14.43;;;;;;;;;;6241455;23;20178;-90
2021/11/18 06:01:29;;;;;;;33.73;14.13;;;;;;;;;;6243243;22;20250;-92
2021/11/18 06:04:36;;;;;;;29.10;13.83;;;;;;;;;;6247571;23;20175;-89
2021/11/18 06:07:46;;;;;;;28.80;13.43;;;;;;;;;;6242937;22;20222;-89
2021/11/18 06:10:52;;;;;;;32.33;14.43;;;;;;;;;;6245100;22;20170;-90
2021/11/18 06:13:57;;;;;;;30.00;13.60;;;;;;;;;;6243727;23;20227;-92
2021/11/18 06:17:09;;;;;;;27.23;13.40;;;;;;;;;;6242781;23;20174;-91
2021/11/18 06:20:16;;;;;;;30.40;13.87;;;;;;;;;;6243553;23;20174;-91
2021/11/18 06:23:23;;;;;;;26.50;12.03;;;;;;;;;;6249244;22;20198;-89
2021/11/18 06:26:30;;;;;;;32.10;14.30;;;;;;;;;;6245307;22;20210;-89
2021/11/18 06:29:37;;;;;;;26.80;12.97;;;;;;;;;;6245609;22;20166;-90
2021/11/18 06:36:08;;;;;;;34.43;13.23;;;;;;;;;;6263872;22;20289;-90
2021/11/18 06:39:16;;;;;;;26.60;12.67;;;;;;;;;;6249704;23;20161;-91
2021/11/18 06:42:22;;;;;;;26.60;12.67;;;;;;;;;;6244604;23;20182;-93
2021/11/18 06:45:46;;;;;;;32.53;13.03;;;;;;;;;;6244836;23;20298;-91
2021/11/18 06:48:55;;;;;;;40.67;14.40;;;;;;;;;;6243349;23;20210;-91
2021/11/18 06:52:05;;;;;;;29.73;13.70;;;;;;;;;;6245040;23;20242;-90
2021/11/18 06:55:12;;;;;;;32.47;13.80;;;;;;;;;;6245117;23;20165;-91
2021/11/18 06:58:20;;;;;;;27.40;13.23;;;;;;;;;;6245183;23;20245;-90
2021/11/18 07:01:27;;;;;;;28.57;12.90;;;;;;;;;;6246918;23;20194;-93
2021/11/18 07:12:17;;;;;;;26.93;12.40;;;;;;;;;;6263517;22;20159;-91
2021/11/18 07:15:26;;;;;;;28.00;13.23;;;;;;;;;;6249544;23;20166;-91
2021/11/18 07:18:33;;;;;;;27.57;12.87;;;;;;;;;;6246578;23;20186;-93
2021/11/18 07:21:39;;;;;;;28.53;12.53;;;;;;;;;;6246629;23;20201;-91
2021/11/18 07:24:46;;;;;;;30.63;13.43;;;;;;;;;;6249146;22;20162;-91
2021/11/18 07:27:56;;;;;;;32.27;13.20;;;;;;;;;;6247472;23;20170;-91
2021/11/18 07:31:02;;;;;;;32.80;12.73;;;;;;;;;;6247415;23;20155;-90
2021/11/18 07:38:11;;;;;;;33.57;14.47;;;;;;;;;;6249789;23;20170;-90
2021/11/18 07:41:20;;;;;;;30.63;14.20;;;;;;;;;;6246739;23;20209;-91
2021/11/18 07:44:49;;;;;;;33.17;14.50;;;;;;;;;;6249191;22;20178;-91
2021/11/18 07:48:23;;;;;;;32.93;14.13;;;;;;;;;;6263401;22;20215;-92
2021/11/18 07:51:32;;;;;;;34.50;14.50;;;;;;;;;;6245429;23;20205;-90
2021/11/18 07:54:38;;;;;;;39.50;15.10;;;;;;;;;;6245973;23;20227;-91
2021/11/18 07:57:47;;;;;;;34.80;14.47;;;;;;;;;;6247824;22;20238;-91
2021/11/18 08:04:17;;;;;;;39.37;15.60;;;;;;;;;;6249130;22;20185;-90
2021/11/18 08:14:04;;;;;;;39.37;15.03;;;;;;;;;;6249855;22;20194;-92
2021/11/18 08:17:18;;;;;;;45.23;17.23;;;;;;;;;;6249427;23;20165;-92
2021/11/18 08:20:25;;;;;;;50.60;17.37;;;;;;;;;;6249494;22;20154;-91
2021/11/18 08:23:33;;;;;;;43.90;16.80;;;;;;;;;;6249234;22;20198;-93
2021/11/18 23:04:41;;;;;;;17.90;8.60;;;;;;;;;;6244987;22;20210;-90
2021/11/18 23:07:48;;;;;;;16.83;8.13;;;;;;;;;;6249203;22;20161;-90
2021/11/18 23:11:06;;;;;;;18.10;8.33;;;;;;;;;;6246248;23;20171;-92
